sensor_id;sensor_type;location;lat;lon;timestamp;P1;durP1;ratioP1;P2;durP2;ratioP2
57826;SDS011;43656;57.746;11.780;2024-03-23T00:55:50;52.88;;;6.78;;
57826;SDS011;43656;57.746;11.780;2024-03-23T00:58:15;43.63;;;6.22;;
57826;SDS011;43656;57.746;11.780;2024-03-23T01:00:41;45.50;;;6.10;;
57826;SDS011;43656;57.746;11.780;2024-03-23T01:03:06;42.97;;;5.65;;
57826;SDS011;43656;57.746;11.780;2024-03-23T01:05:31;46.80;;;5.53;;
57826;SDS011;43656;57.746;11.780;2024-03-23T01:07:57;47.03;;;6.30;;
57826;SDS011;43656;57.746;11.780;2024-03-23T01:10:23;47.08;;;6.38;;
57826;SDS011;43656;57.746;11.780;2024-03-23T01:12:49;43.63;;;6.30;;
57826;SDS011;43656;57.746;11.780;2024-03-23T01:15:14;48.88;;;6.30;;
57826;SDS011;43656;57.746;11.780;2024-03-23T01:17:40;44.28;;;5.50;;
57826;SDS011;43656;57.746;11.780;2024-03-23T01:20:05;45.95;;;6.70;;
57826;SDS011;43656;57.746;11.780;2024-03-23T01:22:31;41.80;;;5.80;;
57826;SDS011;43656;57.746;11.780;2024-03-23T01:24:58;38.17;;;5.68;;
57826;SDS011;43656;57.746;11.780;2024-03-23T01:27:23;48.50;;;6.43;;
57826;SDS011;43656;57.746;11.780;2024-03-23T01:29:48;44.13;;;5.75;;
57826;SDS011;43656;57.746;11.780;2024-03-23T01:32:14;52.20;;;6.25;;
57826;SDS011;43656;57.746;11.780;2024-03-23T01:34:39;46.58;;;5.35;;
57826;SDS011;43656;57.746;11.780;2024-03-23T01:37:04;51.15;;;6.43;;
57826;SDS011;43656;57.746;11.780;2024-03-23T01:39:30;47.92;;;5.85;;
57826;SDS011;43656;57.746;11.780;2024-03-23T01:41:55;47.90;;;5.72;;
57826;SDS011;43656;57.746;11.780;2024-03-23T01:44:20;51.70;;;6.10;;
57826;SDS011;43656;57.746;11.780;2024-03-23T01:46:46;48.25;;;6.30;;
57826;SDS011;43656;57.746;11.780;2024-03-23T01:49:12;44.78;;;6.03;;
57826;SDS011;43656;57.746;11.780;2024-03-23T01:51:38;51.03;;;5.95;;
57826;SDS011;43656;57.746;11.780;2024-03-23T01:54:04;56.38;;;6.32;;
57826;SDS011;43656;57.746;11.780;2024-03-23T01:56:33;44.20;;;6.32;;
57826;SDS011;43656;57.746;11.780;2024-03-23T01:59:02;44.97;;;5.90;;
57826;SDS011;43656;57.746;11.780;2024-03-23T02:01:28;56.00;;;6.57;;
57826;SDS011;43656;57.746;11.780;2024-03-23T02:03:53;52.83;;;5.90;;
57826;SDS011;43656;57.746;11.780;2024-03-23T02:06:19;58.42;;;6.75;;
57826;SDS011;43656;57.746;11.780;2024-03-23T02:08:44;43.83;;;5.50;;
57826;SDS011;43656;57.746;11.780;2024-03-23T02:11:10;53.28;;;6.30;;
57826;SDS011;43656;57.746;11.780;2024-03-23T02:13:35;41.50;;;5.95;;
57826;SDS011;43656;57.746;11.780;2024-03-23T02:16:01;47.55;;;6.18;;
57826;SDS011;43656;57.746;11.780;2024-03-23T02:18:26;50.95;;;5.60;;
57826;SDS011;43656;57.746;11.780;2024-03-23T02:20:52;44.97;;;5.90;;
57826;SDS011;43656;57.746;11.780;2024-03-23T02:23:17;50.65;;;6.60;;
57826;SDS011;43656;57.746;11.780;2024-03-23T02:25:43;60.63;;;6.68;;
57826;SDS011;43656;57.746;11.780;2024-03-23T02:28:09;57.03;;;6.43;;
57826;SDS011;43656;57.746;11.780;2024-03-23T02:30:34;51.03;;;6.53;;
57826;SDS011;43656;57.746;11.780;2024-03-23T02:33:00;54.22;;;6.75;;
57826;SDS011;43656;57.746;11.780;2024-03-23T02:35:25;49.65;;;6.00;;
57826;SDS011;43656;57.746;11.780;2024-03-23T02:37:50;52.92;;;6.38;;
57826;SDS011;43656;57.746;11.780;2024-03-23T02:40:16;50.90;;;6.18;;
57826;SDS011;43656;57.746;11.780;2024-03-23T02:42:42;50.67;;;7.15;;
57826;SDS011;43656;57.746;11.780;2024-03-23T02:45:08;54.33;;;6.10;;
57826;SDS011;43656;57.746;11.780;2024-03-23T02:47:33;57.85;;;6.22;;
57826;SDS011;43656;57.746;11.780;2024-03-23T02:49:59;53.95;;;6.38;;
57826;SDS011;43656;57.746;11.780;2024-03-23T02:52:24;50.75;;;5.47;;
57826;SDS011;43656;57.746;11.780;2024-03-23T02:54:49;46.65;;;6.32;;
57826;SDS011;43656;57.746;11.780;2024-03-23T02:57:15;52.95;;;6.65;;
57826;SDS011;43656;57.746;11.780;2024-03-23T02:59:40;47.95;;;6.95;;
57826;SDS011;43656;57.746;11.780;2024-03-23T03:02:06;44.72;;;5.88;;
57826;SDS011;43656;57.746;11.780;2024-03-23T03:04:31;67.22;;;6.25;;
57826;SDS011;43656;57.746;11.780;2024-03-23T03:06:57;41.78;;;5.78;;
57826;SDS011;43656;57.746;11.780;2024-03-23T03:09:22;50.08;;;5.93;;
57826;SDS011;43656;57.746;11.780;2024-03-23T03:11:48;50.92;;;5.70;;
57826;SDS011;43656;57.746;11.780;2024-03-23T03:14:13;46.55;;;5.47;;
57826;SDS011;43656;57.746;11.780;2024-03-23T03:16:39;44.63;;;5.78;;
57826;SDS011;43656;57.746;11.780;2024-03-23T03:19:04;46.92;;;6.13;;
57826;SDS011;43656;57.746;11.780;2024-03-23T03:21:29;43.63;;;5.07;;
57826;SDS011;43656;57.746;11.780;2024-03-23T03:23:56;57.38;;;7.78;;
57826;SDS011;43656;57.746;11.780;2024-03-23T03:26:22;43.38;;;5.78;;
57826;SDS011;43656;57.746;11.780;2024-03-23T03:28:47;50.10;;;5.95;;
57826;SDS011;43656;57.746;11.780;2024-03-23T03:31:17;54.00;;;6.60;;
57826;SDS011;43656;57.746;11.780;2024-03-23T03:33:43;50.03;;;5.60;;
57826;SDS011;43656;57.746;11.780;2024-03-23T03:36:09;51.88;;;5.50;;
57826;SDS011;43656;57.746;11.780;2024-03-23T03:38:34;56.63;;;5.60;;
57826;SDS011;43656;57.746;11.780;2024-03-23T03:41:03;45.28;;;5.75;;
57826;SDS011;43656;57.746;11.780;2024-03-23T03:43:29;55.67;;;7.10;;
57826;SDS011;43656;57.746;11.780;2024-03-23T03:45:55;43.97;;;5.53;;
57826;SDS011;43656;57.746;11.780;2024-03-23T03:48:22;41.55;;;5.40;;
57826;SDS011;43656;57.746;11.780;2024-03-23T03:50:48;45.95;;;5.32;;
57826;SDS011;43656;57.746;11.780;2024-03-23T03:53:13;56.08;;;5.88;;
57826;SDS011;43656;57.746;11.780;2024-03-23T03:55:39;47.97;;;5.45;;
57826;SDS011;43656;57.746;11.780;2024-03-23T03:58:04;51.45;;;6.07;;
57826;SDS011;43656;57.746;11.780;2024-03-23T04:00:30;54.45;;;5.10;;
57826;SDS011;43656;57.746;11.780;2024-03-23T04:02:56;52.90;;;6.20;;
57826;SDS011;43656;57.746;11.780;2024-03-23T04:05:21;53.13;;;6.15;;
57826;SDS011;43656;57.746;11.780;2024-03-23T04:07:47;55.50;;;6.07;;
57826;SDS011;43656;57.746;11.780;2024-03-23T04:10:12;55.35;;;6.63;;
57826;SDS011;43656;57.746;11.780;2024-03-23T04:12:38;47.15;;;5.80;;
57826;SDS011;43656;57.746;11.780;2024-03-23T04:15:03;47.80;;;5.13;;
57826;SDS011;43656;57.746;11.780;2024-03-23T04:17:30;49.67;;;6.18;;
57826;SDS011;43656;57.746;11.780;2024-03-23T04:19:58;50.15;;;5.70;;
57826;SDS011;43656;57.746;11.780;2024-03-23T04:22:23;51.53;;;6.05;;
57826;SDS011;43656;57.746;11.780;2024-03-23T04:24:51;42.88;;;4.72;;
57826;SDS011;43656;57.746;11.780;2024-03-23T04:27:20;45.65;;;5.47;;
57826;SDS011;43656;57.746;11.780;2024-03-23T04:29:51;49.08;;;5.85;;
57826;SDS011;43656;57.746;11.780;2024-03-23T04:32:18;58.65;;;5.90;;
57826;SDS011;43656;57.746;11.780;2024-03-23T04:34:44;48.78;;;5.68;;
57826;SDS011;43656;57.746;11.780;2024-03-23T04:37:10;49.72;;;5.30;;
57826;SDS011;43656;57.746;11.780;2024-03-23T04:39:36;49.30;;;5.30;;
57826;SDS011;43656;57.746;11.780;2024-03-23T04:42:02;54.05;;;6.07;;
57826;SDS011;43656;57.746;11.780;2024-03-23T04:44:28;52.92;;;5.75;;
57826;SDS011;43656;57.746;11.780;2024-03-23T04:46:54;56.72;;;5.32;;
57826;SDS011;43656;57.746;11.780;2024-03-23T04:49:19;56.10;;;5.72;;
57826;SDS011;43656;57.746;11.780;2024-03-23T04:51:45;51.53;;;5.20;;
57826;SDS011;43656;57.746;11.780;2024-03-23T04:54:11;50.85;;;6.18;;
57826;SDS011;43656;57.746;11.780;2024-03-23T04:56:37;48.47;;;5.45;;
57826;SDS011;43656;57.746;11.780;2024-03-23T04:59:03;48.63;;;5.28;;
57826;SDS011;43656;57.746;11.780;2024-03-23T05:01:30;59.25;;;5.38;;
57826;SDS011;43656;57.746;11.780;2024-03-23T05:03:58;45.28;;;5.18;;
57826;SDS011;43656;57.746;11.780;2024-03-23T05:06:24;43.10;;;5.32;;
57826;SDS011;43656;57.746;11.780;2024-03-23T05:08:50;60.70;;;5.03;;
57826;SDS011;43656;57.746;11.780;2024-03-23T05:11:17;53.22;;;5.85;;
57826;SDS011;43656;57.746;11.780;2024-03-23T05:13:43;48.88;;;5.00;;
57826;SDS011;43656;57.746;11.780;2024-03-23T05:16:09;63.90;;;5.55;;
57826;SDS011;43656;57.746;11.780;2024-03-23T05:18:35;42.67;;;5.05;;
57826;SDS011;43656;57.746;11.780;2024-03-23T05:21:00;57.35;;;5.25;;
57826;SDS011;43656;57.746;11.780;2024-03-23T05:23:26;46.95;;;5.13;;
57826;SDS011;43656;57.746;11.780;2024-03-23T05:25:53;51.33;;;5.18;;
57826;SDS011;43656;57.746;11.780;2024-03-23T05:28:19;51.33;;;5.40;;
57826;SDS011;43656;57.746;11.780;2024-03-23T05:30:52;50.28;;;5.25;;
57826;SDS011;43656;57.746;11.780;2024-03-23T05:33:20;37.97;;;5.22;;
57826;SDS011;43656;57.746;11.780;2024-03-23T05:35:45;49.10;;;5.22;;
57826;SDS011;43656;57.746;11.780;2024-03-23T05:38:12;39.28;;;4.85;;
57826;SDS011;43656;57.746;11.780;2024-03-23T05:40:38;55.45;;;5.75;;
57826;SDS011;43656;57.746;11.780;2024-03-23T05:43:05;45.35;;;4.90;;
57826;SDS011;43656;57.746;11.780;2024-03-23T05:45:31;51.08;;;5.18;;
57826;SDS011;43656;57.746;11.780;2024-03-23T05:47:57;50.85;;;6.07;;
57826;SDS011;43656;57.746;11.780;2024-03-23T05:50:22;44.97;;;5.68;;
57826;SDS011;43656;57.746;11.780;2024-03-23T05:52:49;54.95;;;5.90;;
57826;SDS011;43656;57.746;11.780;2024-03-23T05:55:14;43.55;;;5.70;;
57826;SDS011;43656;57.746;11.780;2024-03-23T05:57:40;50.47;;;4.95;;
57826;SDS011;43656;57.746;11.780;2024-03-23T06:00:06;51.65;;;5.35;;
57826;SDS011;43656;57.746;11.780;2024-03-23T06:02:41;54.20;;;5.35;;
57826;SDS011;43656;57.746;11.780;2024-03-23T06:05:11;39.42;;;4.80;;
57826;SDS011;43656;57.746;11.780;2024-03-23T06:07:37;52.55;;;6.30;;
57826;SDS011;43656;57.746;11.780;2024-03-23T06:10:02;54.70;;;5.93;;
57826;SDS011;43656;57.746;11.780;2024-03-23T06:12:28;46.80;;;6.47;;
57826;SDS011;43656;57.746;11.780;2024-03-23T06:14:53;60.65;;;5.70;;
57826;SDS011;43656;57.746;11.780;2024-03-23T06:17:19;51.35;;;6.15;;
57826;SDS011;43656;57.746;11.780;2024-03-23T06:19:44;41.45;;;5.40;;
57826;SDS011;43656;57.746;11.780;2024-03-23T06:22:10;44.58;;;5.78;;
57826;SDS011;43656;57.746;11.780;2024-03-23T06:24:35;46.90;;;5.93;;
57826;SDS011;43656;57.746;11.780;2024-03-23T06:27:00;39.83;;;5.05;;
57826;SDS011;43656;57.746;11.780;2024-03-23T06:29:26;49.55;;;5.10;;
57826;SDS011;43656;57.746;11.780;2024-03-23T06:31:52;45.97;;;5.30;;
57826;SDS011;43656;57.746;11.780;2024-03-23T06:34:19;48.47;;;5.65;;
57826;SDS011;43656;57.746;11.780;2024-03-23T06:36:46;42.90;;;5.18;;
57826;SDS011;43656;57.746;11.780;2024-03-23T06:39:11;46.13;;;6.65;;
57826;SDS011;43656;57.746;11.780;2024-03-23T06:41:40;50.45;;;6.63;;
57826;SDS011;43656;57.746;11.780;2024-03-23T06:44:06;38.67;;;5.65;;
57826;SDS011;43656;57.746;11.780;2024-03-23T06:46:32;46.85;;;6.07;;
57826;SDS011;43656;57.746;11.780;2024-03-23T06:48:57;45.38;;;5.35;;
57826;SDS011;43656;57.746;11.780;2024-03-23T06:51:23;46.83;;;4.88;;
57826;SDS011;43656;57.746;11.780;2024-03-23T06:53:49;40.35;;;5.35;;
57826;SDS011;43656;57.746;11.780;2024-03-23T06:56:15;35.55;;;5.05;;
57826;SDS011;43656;57.746;11.780;2024-03-23T06:58:40;37.65;;;5.43;;
57826;SDS011;43656;57.746;11.780;2024-03-23T07:01:05;44.63;;;5.22;;
57826;SDS011;43656;57.746;11.780;2024-03-23T07:03:32;36.35;;;5.35;;
57826;SDS011;43656;57.746;11.780;2024-03-23T07:08:41;41.72;;;5.32;;
57826;SDS011;43656;57.746;11.780;2024-03-23T07:11:07;36.30;;;4.82;;
57826;SDS011;43656;57.746;11.780;2024-03-23T07:13:32;48.42;;;6.53;;
57826;SDS011;43656;57.746;11.780;2024-03-23T07:15:58;45.33;;;5.22;;
57826;SDS011;43656;57.746;11.780;2024-03-23T07:18:24;38.58;;;5.13;;
57826;SDS011;43656;57.746;11.780;2024-03-23T07:20:53;40.95;;;4.90;;
57826;SDS011;43656;57.746;11.780;2024-03-23T07:23:19;33.22;;;4.45;;
57826;SDS011;43656;57.746;11.780;2024-03-23T07:25:45;41.95;;;4.95;;
57826;SDS011;43656;57.746;11.780;2024-03-23T07:28:20;34.22;;;5.20;;
57826;SDS011;43656;57.746;11.780;2024-03-23T07:30:46;40.85;;;5.15;;
57826;SDS011;43656;57.746;11.780;2024-03-23T07:33:12;39.05;;;5.35;;
57826;SDS011;43656;57.746;11.780;2024-03-23T07:35:37;33.92;;;4.55;;
57826;SDS011;43656;57.746;11.780;2024-03-23T07:38:03;33.40;;;4.82;;
57826;SDS011;43656;57.746;11.780;2024-03-23T07:40:30;31.00;;;4.95;;
57826;SDS011;43656;57.746;11.780;2024-03-23T07:42:56;31.65;;;4.55;;
57826;SDS011;43656;57.746;11.780;2024-03-23T07:45:21;38.97;;;5.60;;
57826;SDS011;43656;57.746;11.780;2024-03-23T07:47:47;31.75;;;5.00;;
57826;SDS011;43656;57.746;11.780;2024-03-23T07:50:12;26.63;;;4.20;;
57826;SDS011;43656;57.746;11.780;2024-03-23T07:52:38;31.45;;;4.15;;
57826;SDS011;43656;57.746;11.780;2024-03-23T07:55:03;29.95;;;5.20;;
57826;SDS011;43656;57.746;11.780;2024-03-23T07:57:29;45.63;;;5.32;;
57826;SDS011;43656;57.746;11.780;2024-03-23T07:59:54;39.92;;;4.88;;
57826;SDS011;43656;57.746;11.780;2024-03-23T08:02:20;35.30;;;5.30;;
57826;SDS011;43656;57.746;11.780;2024-03-23T08:04:46;29.73;;;5.35;;
57826;SDS011;43656;57.746;11.780;2024-03-23T08:07:11;30.65;;;5.15;;
57826;SDS011;43656;57.746;11.780;2024-03-23T08:09:37;38.88;;;5.20;;
57826;SDS011;43656;57.746;11.780;2024-03-23T08:12:02;37.10;;;5.35;;
57826;SDS011;43656;57.746;11.780;2024-03-23T08:14:28;32.05;;;4.18;;
57826;SDS011;43656;57.746;11.780;2024-03-23T08:16:54;36.67;;;6.35;;
57826;SDS011;43656;57.746;11.780;2024-03-23T08:19:19;27.85;;;3.90;;
57826;SDS011;43656;57.746;11.780;2024-03-23T08:21:45;35.97;;;5.10;;
57826;SDS011;43656;57.746;11.780;2024-03-23T08:24:10;38.47;;;5.30;;
57826;SDS011;43656;57.746;11.780;2024-03-23T08:26:36;28.40;;;5.07;;
57826;SDS011;43656;57.746;11.780;2024-03-23T08:29:02;32.97;;;5.03;;
57826;SDS011;43656;57.746;11.780;2024-03-23T08:31:28;33.95;;;5.53;;
57826;SDS011;43656;57.746;11.780;2024-03-23T08:33:53;45.67;;;5.10;;
57826;SDS011;43656;57.746;11.780;2024-03-23T08:36:19;35.13;;;5.50;;
57826;SDS011;43656;57.746;11.780;2024-03-23T08:38:44;32.40;;;5.05;;
57826;SDS011;43656;57.746;11.780;2024-03-23T08:41:10;33.95;;;5.38;;
57826;SDS011;43656;57.746;11.780;2024-03-23T08:43:37;42.83;;;4.82;;
57826;SDS011;43656;57.746;11.780;2024-03-23T08:46:07;41.78;;;5.28;;
57826;SDS011;43656;57.746;11.780;2024-03-23T08:48:37;40.17;;;4.65;;
57826;SDS011;43656;57.746;11.780;2024-03-23T08:51:04;31.60;;;4.82;;
57826;SDS011;43656;57.746;11.780;2024-03-23T08:53:33;31.88;;;4.88;;
57826;SDS011;43656;57.746;11.780;2024-03-23T08:55:59;36.22;;;5.53;;
57826;SDS011;43656;57.746;11.780;2024-03-23T08:58:26;25.65;;;4.47;;
57826;SDS011;43656;57.746;11.780;2024-03-23T09:00:52;33.80;;;4.65;;
57826;SDS011;43656;57.746;11.780;2024-03-23T09:03:21;34.70;;;5.32;;
57826;SDS011;43656;57.746;11.780;2024-03-23T09:05:47;28.48;;;4.45;;
57826;SDS011;43656;57.746;11.780;2024-03-23T09:08:12;27.63;;;4.32;;
57826;SDS011;43656;57.746;11.780;2024-03-23T09:10:38;30.88;;;4.95;;
57826;SDS011;43656;57.746;11.780;2024-03-23T09:13:04;35.55;;;5.05;;
57826;SDS011;43656;57.746;11.780;2024-03-23T09:15:30;38.20;;;5.32;;
57826;SDS011;43656;57.746;11.780;2024-03-23T09:17:56;39.83;;;5.55;;
57826;SDS011;43656;57.746;11.780;2024-03-23T09:20:21;29.05;;;4.80;;
57826;SDS011;43656;57.746;11.780;2024-03-23T09:22:48;35.08;;;5.47;;
57826;SDS011;43656;57.746;11.780;2024-03-23T09:25:13;35.90;;;5.20;;
57826;SDS011;43656;57.746;11.780;2024-03-23T09:27:38;25.63;;;4.70;;
57826;SDS011;43656;57.746;11.780;2024-03-23T09:30:04;31.50;;;5.70;;
57826;SDS011;43656;57.746;11.780;2024-03-23T09:32:35;37.05;;;4.75;;
57826;SDS011;43656;57.746;11.780;2024-03-23T09:35:04;27.83;;;4.68;;
57826;SDS011;43656;57.746;11.780;2024-03-23T09:37:34;29.35;;;4.32;;
57826;SDS011;43656;57.746;11.780;2024-03-23T09:40:00;34.95;;;4.85;;
57826;SDS011;43656;57.746;11.780;2024-03-23T09:42:25;32.47;;;5.28;;
57826;SDS011;43656;57.746;11.780;2024-03-23T09:44:51;34.58;;;4.80;;
57826;SDS011;43656;57.746;11.780;2024-03-23T09:47:16;29.00;;;4.18;;
57826;SDS011;43656;57.746;11.780;2024-03-23T09:49:42;24.52;;;4.15;;
57826;SDS011;43656;57.746;11.780;2024-03-23T09:52:08;24.92;;;3.97;;
57826;SDS011;43656;57.746;11.780;2024-03-23T09:54:33;20.50;;;3.90;;
57826;SDS011;43656;57.746;11.780;2024-03-23T09:56:59;30.02;;;4.30;;
57826;SDS011;43656;57.746;11.780;2024-03-23T09:59:24;21.30;;;3.80;;
57826;SDS011;43656;57.746;11.780;2024-03-23T10:01:52;26.17;;;3.60;;
57826;SDS011;43656;57.746;11.780;2024-03-23T10:04:37;25.50;;;3.90;;
57826;SDS011;43656;57.746;11.780;2024-03-23T10:07:15;22.83;;;4.20;;
57826;SDS011;43656;57.746;11.780;2024-03-23T10:09:43;30.30;;;5.28;;
57826;SDS011;43656;57.746;11.780;2024-03-23T10:12:13;21.75;;;4.45;;
57826;SDS011;43656;57.746;11.780;2024-03-23T10:14:40;27.25;;;4.65;;
57826;SDS011;43656;57.746;11.780;2024-03-23T10:17:11;30.38;;;5.07;;
57826;SDS011;43656;57.746;11.780;2024-03-23T10:19:47;26.38;;;4.93;;
57826;SDS011;43656;57.746;11.780;2024-03-23T10:22:18;35.97;;;4.95;;
57826;SDS011;43656;57.746;11.780;2024-03-23T10:24:47;39.13;;;4.97;;
57826;SDS011;43656;57.746;11.780;2024-03-23T10:27:20;30.02;;;4.10;;
57826;SDS011;43656;57.746;11.780;2024-03-23T10:29:49;27.90;;;4.18;;
57826;SDS011;43656;57.746;11.780;2024-03-23T10:32:18;27.58;;;4.75;;
57826;SDS011;43656;57.746;11.780;2024-03-23T10:34:44;29.85;;;5.78;;
57826;SDS011;43656;57.746;11.780;2024-03-23T10:37:10;34.15;;;4.95;;
57826;SDS011;43656;57.746;11.780;2024-03-23T10:39:39;33.67;;;4.55;;
57826;SDS011;43656;57.746;11.780;2024-03-23T10:42:06;26.48;;;4.40;;
57826;SDS011;43656;57.746;11.780;2024-03-23T10:44:38;31.88;;;4.78;;
57826;SDS011;43656;57.746;11.780;2024-03-23T10:47:04;29.63;;;5.60;;
57826;SDS011;43656;57.746;11.780;2024-03-23T10:49:31;34.90;;;5.43;;
57826;SDS011;43656;57.746;11.780;2024-03-23T10:51:58;33.20;;;4.75;;
57826;SDS011;43656;57.746;11.780;2024-03-23T10:54:28;27.88;;;4.90;;
57826;SDS011;43656;57.746;11.780;2024-03-23T10:59:30;40.95;;;6.07;;
57826;SDS011;43656;57.746;11.780;2024-03-23T11:01:57;26.67;;;4.60;;
57826;SDS011;43656;57.746;11.780;2024-03-23T11:04:32;26.48;;;4.38;;
57826;SDS011;43656;57.746;11.780;2024-03-23T11:06:59;36.40;;;5.13;;
57826;SDS011;43656;57.746;11.780;2024-03-23T11:12:14;27.52;;;5.30;;
57826;SDS011;43656;57.746;11.780;2024-03-23T11:14:48;27.27;;;4.57;;
57826;SDS011;43656;57.746;11.780;2024-03-23T11:17:19;30.08;;;4.78;;
57826;SDS011;43656;57.746;11.780;2024-03-23T11:19:58;29.48;;;4.78;;
57826;SDS011;43656;57.746;11.780;2024-03-23T11:27:37;24.75;;;3.97;;
57826;SDS011;43656;57.746;11.780;2024-03-23T11:30:12;25.55;;;4.10;;
57826;SDS011;43656;57.746;11.780;2024-03-23T11:32:39;22.48;;;4.03;;
57826;SDS011;43656;57.746;11.780;2024-03-23T11:35:05;26.58;;;4.40;;
57826;SDS011;43656;57.746;11.780;2024-03-23T11:37:31;25.02;;;4.47;;
57826;SDS011;43656;57.746;11.780;2024-03-23T11:39:56;24.25;;;4.85;;
57826;SDS011;43656;57.746;11.780;2024-03-23T11:42:21;26.08;;;4.45;;
57826;SDS011;43656;57.746;11.780;2024-03-23T11:44:47;24.05;;;4.43;;
57826;SDS011;43656;57.746;11.780;2024-03-23T11:47:12;30.85;;;3.83;;
57826;SDS011;43656;57.746;11.780;2024-03-23T11:49:38;21.85;;;3.47;;
57826;SDS011;43656;57.746;11.780;2024-03-23T11:52:06;21.48;;;3.78;;
57826;SDS011;43656;57.746;11.780;2024-03-23T11:54:32;24.25;;;4.20;;
57826;SDS011;43656;57.746;11.780;2024-03-23T11:59:57;24.25;;;3.58;;
57826;SDS011;43656;57.746;11.780;2024-03-23T12:02:15;16.85;;;3.42;;
57826;SDS011;43656;57.746;11.780;2024-03-23T12:04:43;21.95;;;3.85;;
57826;SDS011;43656;57.746;11.780;2024-03-23T12:07:20;24.67;;;4.70;;
57826;SDS011;43656;57.746;11.780;2024-03-23T12:09:47;24.75;;;3.40;;
57826;SDS011;43656;57.746;11.780;2024-03-23T12:12:28;24.35;;;3.92;;
57826;SDS011;43656;57.746;11.780;2024-03-23T12:15:06;25.90;;;4.35;;
57826;SDS011;43656;57.746;11.780;2024-03-23T12:17:33;23.73;;;3.90;;
57826;SDS011;43656;57.746;11.780;2024-03-23T12:20:00;24.98;;;3.83;;
57826;SDS011;43656;57.746;11.780;2024-03-23T12:22:26;26.23;;;3.60;;
57826;SDS011;43656;57.746;11.780;2024-03-23T12:24:52;25.45;;;3.97;;
57826;SDS011;43656;57.746;11.780;2024-03-23T12:27:18;32.13;;;4.40;;
57826;SDS011;43656;57.746;11.780;2024-03-23T12:29:43;23.52;;;3.63;;
57826;SDS011;43656;57.746;11.780;2024-03-23T12:32:11;22.63;;;4.53;;
57826;SDS011;43656;57.746;11.780;2024-03-23T12:34:37;23.27;;;3.70;;
57826;SDS011;43656;57.746;11.780;2024-03-23T12:37:02;27.45;;;4.22;;
57826;SDS011;43656;57.746;11.780;2024-03-23T12:39:28;27.00;;;4.22;;
57826;SDS011;43656;57.746;11.780;2024-03-23T12:41:53;23.45;;;3.88;;
57826;SDS011;43656;57.746;11.780;2024-03-23T12:44:19;21.55;;;3.75;;
57826;SDS011;43656;57.746;11.780;2024-03-23T12:46:44;25.33;;;3.70;;
57826;SDS011;43656;57.746;11.780;2024-03-23T12:49:10;17.20;;;3.45;;
57826;SDS011;43656;57.746;11.780;2024-03-23T12:51:36;22.83;;;4.35;;
57826;SDS011;43656;57.746;11.780;2024-03-23T12:54:02;26.27;;;4.18;;
57826;SDS011;43656;57.746;11.780;2024-03-23T12:56:27;20.73;;;3.42;;
57826;SDS011;43656;57.746;11.780;2024-03-23T12:58:53;16.27;;;3.30;;
57826;SDS011;43656;57.746;11.780;2024-03-23T13:01:20;16.58;;;3.53;;
57826;SDS011;43656;57.746;11.780;2024-03-23T13:03:49;18.88;;;2.97;;
57826;SDS011;43656;57.746;11.780;2024-03-23T13:06:18;18.00;;;3.30;;
57826;SDS011;43656;57.746;11.780;2024-03-23T13:08:44;21.15;;;3.70;;
57826;SDS011;43656;57.746;11.780;2024-03-23T13:11:10;17.88;;;3.13;;
57826;SDS011;43656;57.746;11.780;2024-03-23T13:13:36;16.77;;;3.10;;
57826;SDS011;43656;57.746;11.780;2024-03-23T13:16:02;19.77;;;3.60;;
57826;SDS011;43656;57.746;11.780;2024-03-23T13:18:29;20.63;;;3.28;;
57826;SDS011;43656;57.746;11.780;2024-03-23T13:20:55;20.52;;;3.28;;
57826;SDS011;43656;57.746;11.780;2024-03-23T13:23:20;24.25;;;3.53;;
57826;SDS011;43656;57.746;11.780;2024-03-23T13:25:49;23.15;;;3.28;;
57826;SDS011;43656;57.746;11.780;2024-03-23T13:28:18;15.05;;;3.20;;
57826;SDS011;43656;57.746;11.780;2024-03-23T13:30:54;22.13;;;3.80;;
57826;SDS011;43656;57.746;11.780;2024-03-23T13:33:20;17.80;;;2.88;;
57826;SDS011;43656;57.746;11.780;2024-03-23T13:35:52;21.60;;;3.22;;
57826;SDS011;43656;57.746;11.780;2024-03-23T13:38:20;13.73;;;3.03;;
57826;SDS011;43656;57.746;11.780;2024-03-23T13:43:22;19.65;;;3.53;;
57826;SDS011;43656;57.746;11.780;2024-03-23T13:45:48;11.10;;;1.85;;
57826;SDS011;43656;57.746;11.780;2024-03-23T13:48:16;7.60;;;1.33;;
57826;SDS011;43656;57.746;11.780;2024-03-23T13:50:43;9.57;;;1.65;;
57826;SDS011;43656;57.746;11.780;2024-03-23T13:53:08;5.63;;;1.20;;
57826;SDS011;43656;57.746;11.780;2024-03-23T13:55:34;6.00;;;1.13;;
57826;SDS011;43656;57.746;11.780;2024-03-23T13:57:59;6.93;;;0.98;;
57826;SDS011;43656;57.746;11.780;2024-03-23T14:00:25;6.00;;;0.80;;
57826;SDS011;43656;57.746;11.780;2024-03-23T14:02:50;2.83;;;0.60;;
57826;SDS011;43656;57.746;11.780;2024-03-23T14:05:16;6.10;;;0.90;;
57826;SDS011;43656;57.746;11.780;2024-03-23T14:07:41;9.32;;;1.00;;
57826;SDS011;43656;57.746;11.780;2024-03-23T14:10:06;4.47;;;0.85;;
57826;SDS011;43656;57.746;11.780;2024-03-23T14:12:32;3.83;;;0.80;;
57826;SDS011;43656;57.746;11.780;2024-03-23T14:14:57;5.43;;;1.00;;
57826;SDS011;43656;57.746;11.780;2024-03-23T14:17:23;6.53;;;0.80;;
57826;SDS011;43656;57.746;11.780;2024-03-23T14:19:48;3.03;;;0.60;;
57826;SDS011;43656;57.746;11.780;2024-03-23T14:22:15;3.60;;;0.60;;
57826;SDS011;43656;57.746;11.780;2024-03-23T14:24:42;1.98;;;0.50;;
57826;SDS011;43656;57.746;11.780;2024-03-23T14:27:08;3.78;;;1.10;;
57826;SDS011;43656;57.746;11.780;2024-03-23T14:29:33;3.45;;;0.80;;
57826;SDS011;43656;57.746;11.780;2024-03-23T14:31:59;4.47;;;0.68;;
57826;SDS011;43656;57.746;11.780;2024-03-23T14:34:26;6.20;;;1.20;;
57826;SDS011;43656;57.746;11.780;2024-03-23T14:36:53;8.13;;;1.23;;
57826;SDS011;43656;57.746;11.780;2024-03-23T14:39:22;10.68;;;1.92;;
57826;SDS011;43656;57.746;11.780;2024-03-23T14:41:48;11.18;;;1.85;;
57826;SDS011;43656;57.746;11.780;2024-03-23T14:44:14;6.68;;;1.35;;
57826;SDS011;43656;57.746;11.780;2024-03-23T14:46:40;6.30;;;1.83;;
57826;SDS011;43656;57.746;11.780;2024-03-23T14:49:05;11.68;;;2.30;;
57826;SDS011;43656;57.746;11.780;2024-03-23T14:51:30;12.13;;;1.73;;
57826;SDS011;43656;57.746;11.780;2024-03-23T14:53:57;9.50;;;1.55;;
57826;SDS011;43656;57.746;11.780;2024-03-23T14:56:23;10.90;;;1.80;;
57826;SDS011;43656;57.746;11.780;2024-03-23T14:58:52;10.88;;;1.77;;
57826;SDS011;43656;57.746;11.780;2024-03-23T15:01:18;11.23;;;1.85;;
57826;SDS011;43656;57.746;11.780;2024-03-23T15:03:44;9.65;;;1.65;;
57826;SDS011;43656;57.746;11.780;2024-03-23T15:06:09;11.35;;;2.03;;
57826;SDS011;43656;57.746;11.780;2024-03-23T15:08:35;13.07;;;2.38;;
57826;SDS011;43656;57.746;11.780;2024-03-23T15:11:05;13.38;;;2.00;;
57826;SDS011;43656;57.746;11.780;2024-03-23T15:13:34;18.73;;;2.30;;
57826;SDS011;43656;57.746;11.780;2024-03-23T15:16:00;13.43;;;2.30;;
57826;SDS011;43656;57.746;11.780;2024-03-23T15:18:28;14.20;;;2.15;;
57826;SDS011;43656;57.746;11.780;2024-03-23T15:20:55;11.15;;;2.20;;
57826;SDS011;43656;57.746;11.780;2024-03-23T15:23:21;9.52;;;2.50;;
57826;SDS011;43656;57.746;11.780;2024-03-23T15:25:56;16.35;;;2.65;;
57826;SDS011;43656;57.746;11.780;2024-03-23T15:28:23;12.32;;;2.85;;
57826;SDS011;43656;57.746;11.780;2024-03-23T15:30:49;14.48;;;2.20;;
57826;SDS011;43656;57.746;11.780;2024-03-23T15:33:15;10.75;;;2.08;;